Cumbernauld, United Kingdom

8:59 AM GMT on February 07, 2016 (GMT +0000)
Carrickstone Vale | | Change Station
CLOSE
Current Station
Personal Weather Station
Location: Cumbernauld, NORTH LANARKSHIRE
Elevation: 440 ft
Nearby Weather Stations

Elev 440 ft 55.96 °N, 3.99 °W | Updated 4 minutes ago

Overcast
Overcast
42.8 °F
Feels Like 40 °F
N
4.9
Wind Variable Wind from SW
Gusts 6.9 mph

Today
High -- | Low -- °F
--% Chance of Precip.
Yesterday
High -- | Low -- °F
Precip. -- in
Pressure 28.80 in
Visibility 5.0 miles
Clouds Few 1700 ft
Mostly Cloudy 3200 ft
Windchill 40 °F
Dew Point 38.0 °F
Humidity 83%
Rainfall 0.00 in
Snow Depth Not available.
7:59 AM 5:01 PM
Waning Crescent, 2% visible
METAR EGPH 070850Z AUTO 21023KT 8000 -RA FEW017 BKN032 04/02 Q0975
Pressure 28.80 in
Visibility 5.0 miles
Clouds Few 1700 ft
Mostly Cloudy 3200 ft
Windchill 40 °F
Dew Point 38.0 °F
Humidity 83%
Rainfall 0.00 in
Snow Depth Not available.
7:59 AM 5:01 PM
Waning Crescent, 2% visible
METAR EGPH 070850Z AUTO 21023KT 8000 -RA FEW017 BKN032 04/02 Q0975

10-Day Weather Forecast

Almanac

Astronomy

Feb. 07, 2016 Rise Set
Actual Time
Civil Twilight
Nautical Twilight
Astronomical Twilight
Moon
Length of Visible Light
Length of Day
Tomorrow will be .
, % of the Moon is Illuminated

Today's Extremes

Country Highs Country Lows

Community

WunderPhotos

Upload Photos

1,891,171 photos uploaded!

WunderBlog® & News

Nearby

Air Quality

  Air Quality AQ Index Pollutant
Not available.

Snow Depth

Station Depth Elevation

Earthquake Activity

City Distance Mag. Time & Date
Minimum magnitude displayed is 2.5.

Coastal Water Temperatures

Place Temperature

Stations

Nearby Weather Stations

Station Location Temp. Windchill Dew Point Humidity Wind Precip. Elev Updated Type